sensor_id;sensor_type;location;lat;lon;timestamp;temperature;humidity
67279;DHT22;54193;53.746;10.058;2023-11-19T00:00:46;5.42;94.49
67279;DHT22;54193;53.746;10.058;2023-11-19T00:03:32;5.49;94.45
67279;DHT22;54193;53.746;10.058;2023-11-19T00:06:18;5.42;94.56
67279;DHT22;54193;53.746;10.058;2023-11-19T00:09:04;5.45;94.61
67279;DHT22;54193;53.746;10.058;2023-11-19T00:11:50;5.45;94.60
67279;DHT22;54193;53.746;10.058;2023-11-19T00:14:36;5.42;94.61
67279;DHT22;54193;53.746;10.058;2023-11-19T00:17:21;5.39;94.63
67279;DHT22;54193;53.746;10.058;2023-11-19T00:20:07;5.44;94.61
67279;DHT22;54193;53.746;10.058;2023-11-19T00:22:53;5.54;94.71
67279;DHT22;54193;53.746;10.058;2023-11-19T00:25:39;5.55;94.54
67279;DHT22;54193;53.746;10.058;2023-11-19T00:28:24;5.56;94.66
67279;DHT22;54193;53.746;10.058;2023-11-19T00:31:10;5.45;94.71
67279;DHT22;54193;53.746;10.058;2023-11-19T00:33:55;5.51;94.71
67279;DHT22;54193;53.746;10.058;2023-11-19T00:36:41;5.51;94.71
67279;DHT22;54193;53.746;10.058;2023-11-19T00:39:27;5.52;94.73
67279;DHT22;54193;53.746;10.058;2023-11-19T00:42:13;5.51;94.73
67279;DHT22;54193;53.746;10.058;2023-11-19T00:44:59;5.52;94.78
67279;DHT22;54193;53.746;10.058;2023-11-19T00:47:46;5.56;94.83
67279;DHT22;54193;53.746;10.058;2023-11-19T00:50:32;5.58;94.76
67279;DHT22;54193;53.746;10.058;2023-11-19T00:53:18;5.54;94.71
67279;DHT22;54193;53.746;10.058;2023-11-19T00:56:05;5.62;94.75
67279;DHT22;54193;53.746;10.058;2023-11-19T00:58:50;5.65;94.71
67279;DHT22;54193;53.746;10.058;2023-11-19T01:01:36;5.63;94.75
67279;DHT22;54193;53.746;10.058;2023-11-19T01:04:22;5.63;94.68
67279;DHT22;54193;53.746;10.058;2023-11-19T01:07:10;5.56;94.72
67279;DHT22;54193;53.746;10.058;2023-11-19T01:09:58;5.70;94.65
67279;DHT22;54193;53.746;10.058;2023-11-19T01:12:45;5.66;94.71
67279;DHT22;54193;53.746;10.058;2023-11-19T01:15:32;5.67;94.63
67279;DHT22;54193;53.746;10.058;2023-11-19T01:18:18;5.66;94.72
67279;DHT22;54193;53.746;10.058;2023-11-19T01:21:05;5.67;94.60
67279;DHT22;54193;53.746;10.058;2023-11-19T01:23:51;5.69;94.63
67279;DHT22;54193;53.746;10.058;2023-11-19T01:26:36;5.67;94.53
67279;DHT22;54193;53.746;10.058;2023-11-19T01:29:22;5.73;94.60
67279;DHT22;54193;53.746;10.058;2023-11-19T01:32:09;5.70;94.58
67279;DHT22;54193;53.746;10.058;2023-11-19T01:34:55;5.72;94.61
67279;DHT22;54193;53.746;10.058;2023-11-19T01:37:40;5.72;94.62
67279;DHT22;54193;53.746;10.058;2023-11-19T01:40:26;5.77;94.69
67279;DHT22;54193;53.746;10.058;2023-11-19T01:43:11;5.72;94.73
67279;DHT22;54193;53.746;10.058;2023-11-19T01:46:00;5.76;94.72
67279;DHT22;54193;53.746;10.058;2023-11-19T01:48:46;5.79;94.71
67279;DHT22;54193;53.746;10.058;2023-11-19T01:51:32;5.77;94.65
67279;DHT22;54193;53.746;10.058;2023-11-19T01:54:18;5.73;94.65
67279;DHT22;54193;53.746;10.058;2023-11-19T01:57:04;5.77;94.76
67279;DHT22;54193;53.746;10.058;2023-11-19T01:59:51;5.77;94.68
67279;DHT22;54193;53.746;10.058;2023-11-19T02:02:38;5.76;94.73
67279;DHT22;54193;53.746;10.058;2023-11-19T02:05:25;5.85;94.69
67279;DHT22;54193;53.746;10.058;2023-11-19T02:08:10;5.80;94.70
67279;DHT22;54193;53.746;10.058;2023-11-19T02:10:59;5.73;94.74
67279;DHT22;54193;53.746;10.058;2023-11-19T02:13:45;5.77;94.77
67279;DHT22;54193;53.746;10.058;2023-11-19T02:16:31;5.79;94.82
67279;DHT22;54193;53.746;10.058;2023-11-19T02:19:19;5.83;94.76
67279;DHT22;54193;53.746;10.058;2023-11-19T02:22:05;5.80;94.82
67279;DHT22;54193;53.746;10.058;2023-11-19T02:24:59;5.77;94.82
67279;DHT22;54193;53.746;10.058;2023-11-19T02:28:02;5.77;94.86
67279;DHT22;54193;53.746;10.058;2023-11-19T02:30:48;5.82;94.98
67279;DHT22;54193;53.746;10.058;2023-11-19T02:33:34;5.77;94.90
67279;DHT22;54193;53.746;10.058;2023-11-19T02:36:20;5.85;94.88
67279;DHT22;54193;53.746;10.058;2023-11-19T02:39:07;5.89;94.84
67279;DHT22;54193;53.746;10.058;2023-11-19T02:41:56;5.87;94.88
67279;DHT22;54193;53.746;10.058;2023-11-19T02:44:45;5.82;94.99
67279;DHT22;54193;53.746;10.058;2023-11-19T02:47:31;5.80;95.02
67279;DHT22;54193;53.746;10.058;2023-11-19T02:50:17;5.85;95.03
67279;DHT22;54193;53.746;10.058;2023-11-19T02:53:10;5.90;94.97
67279;DHT22;54193;53.746;10.058;2023-11-19T02:55:56;5.93;94.97
67279;DHT22;54193;53.746;10.058;2023-11-19T02:58:47;5.97;95.02
67279;DHT22;54193;53.746;10.058;2023-11-19T03:01:34;5.92;95.04
67279;DHT22;54193;53.746;10.058;2023-11-19T03:04:21;5.90;95.07
67279;DHT22;54193;53.746;10.058;2023-11-19T03:07:08;5.93;95.02
67279;DHT22;54193;53.746;10.058;2023-11-19T03:09:54;5.92;95.13
67279;DHT22;54193;53.746;10.058;2023-11-19T03:12:41;5.92;95.27
67279;DHT22;54193;53.746;10.058;2023-11-19T03:15:30;5.97;95.15
67279;DHT22;54193;53.746;10.058;2023-11-19T03:18:16;5.93;95.20
67279;DHT22;54193;53.746;10.058;2023-11-19T03:21:02;6.03;95.17
67279;DHT22;54193;53.746;10.058;2023-11-19T03:23:48;6.02;95.21
67279;DHT22;54193;53.746;10.058;2023-11-19T03:26:34;6.06;95.24
67279;DHT22;54193;53.746;10.058;2023-11-19T03:29:20;6.06;95.22
67279;DHT22;54193;53.746;10.058;2023-11-19T03:32:06;6.09;95.33
67279;DHT22;54193;53.746;10.058;2023-11-19T03:34:52;6.16;95.25
67279;DHT22;54193;53.746;10.058;2023-11-19T03:37:37;6.21;95.22
67279;DHT22;54193;53.746;10.058;2023-11-19T03:40:25;6.20;95.25
67279;DHT22;54193;53.746;10.058;2023-11-19T03:43:10;6.17;95.19
67279;DHT22;54193;53.746;10.058;2023-11-19T03:45:58;6.31;95.18
67279;DHT22;54193;53.746;10.058;2023-11-19T03:48:43;6.23;95.19
67279;DHT22;54193;53.746;10.058;2023-11-19T03:51:29;6.20;95.27
67279;DHT22;54193;53.746;10.058;2023-11-19T03:54:15;6.28;95.32
67279;DHT22;54193;53.746;10.058;2023-11-19T03:57:02;6.31;95.13
67279;DHT22;54193;53.746;10.058;2023-11-19T03:59:49;6.28;95.21
67279;DHT22;54193;53.746;10.058;2023-11-19T04:02:35;6.34;95.35
67279;DHT22;54193;53.746;10.058;2023-11-19T04:05:21;6.34;95.30
67279;DHT22;54193;53.746;10.058;2023-11-19T04:08:07;6.40;95.20
67279;DHT22;54193;53.746;10.058;2023-11-19T04:10:52;6.46;95.34
67279;DHT22;54193;53.746;10.058;2023-11-19T04:13:38;6.48;95.24
67279;DHT22;54193;53.746;10.058;2023-11-19T04:16:27;6.48;95.24
67279;DHT22;54193;53.746;10.058;2023-11-19T04:19:16;6.49;95.38
67279;DHT22;54193;53.746;10.058;2023-11-19T04:22:01;6.53;95.32
67279;DHT22;54193;53.746;10.058;2023-11-19T04:24:47;6.59;95.33
67279;DHT22;54193;53.746;10.058;2023-11-19T04:27:33;6.67;95.24
67279;DHT22;54193;53.746;10.058;2023-11-19T04:30:18;6.61;95.41
67279;DHT22;54193;53.746;10.058;2023-11-19T04:33:04;6.69;95.42
67279;DHT22;54193;53.746;10.058;2023-11-19T04:35:51;6.83;95.35
67279;DHT22;54193;53.746;10.058;2023-11-19T04:38:37;6.90;95.20
67279;DHT22;54193;53.746;10.058;2023-11-19T04:41:24;6.82;95.31
67279;DHT22;54193;53.746;10.058;2023-11-19T04:44:09;6.80;95.23
67279;DHT22;54193;53.746;10.058;2023-11-19T04:46:55;6.95;95.55
67279;DHT22;54193;53.746;10.058;2023-11-19T04:49:41;6.97;95.35
67279;DHT22;54193;53.746;10.058;2023-11-19T04:52:30;7.06;95.34
67279;DHT22;54193;53.746;10.058;2023-11-19T04:55:15;7.00;95.30
67279;DHT22;54193;53.746;10.058;2023-11-19T04:58:01;6.93;95.39
67279;DHT22;54193;53.746;10.058;2023-11-19T05:00:47;6.97;95.51
67279;DHT22;54193;53.746;10.058;2023-11-19T05:03:32;7.18;95.59
67279;DHT22;54193;53.746;10.058;2023-11-19T05:06:18;7.28;95.56
67279;DHT22;54193;53.746;10.058;2023-11-19T05:09:04;7.18;95.49
67279;DHT22;54193;53.746;10.058;2023-11-19T05:11:52;7.18;95.57
67279;DHT22;54193;53.746;10.058;2023-11-19T05:14:39;7.17;95.70
67279;DHT22;54193;53.746;10.058;2023-11-19T05:17:25;7.24;95.79
67279;DHT22;54193;53.746;10.058;2023-11-19T05:20:10;7.32;95.80
67279;DHT22;54193;53.746;10.058;2023-11-19T05:22:58;7.43;95.72
67279;DHT22;54193;53.746;10.058;2023-11-19T05:25:45;7.47;95.66
67279;DHT22;54193;53.746;10.058;2023-11-19T05:28:31;7.61;95.85
67279;DHT22;54193;53.746;10.058;2023-11-19T05:31:17;7.76;95.76
67279;DHT22;54193;53.746;10.058;2023-11-19T05:34:03;7.85;95.61
67279;DHT22;54193;53.746;10.058;2023-11-19T05:36:49;7.97;95.87
67279;DHT22;54193;53.746;10.058;2023-11-19T05:39:35;7.99;95.84
67279;DHT22;54193;53.746;10.058;2023-11-19T05:42:21;8.06;95.69
67279;DHT22;54193;53.746;10.058;2023-11-19T05:45:09;8.09;95.63
67279;DHT22;54193;53.746;10.058;2023-11-19T05:47:55;8.10;95.67
67279;DHT22;54193;53.746;10.058;2023-11-19T05:50:41;8.19;95.58
67279;DHT22;54193;53.746;10.058;2023-11-19T05:53:26;8.23;95.51
67279;DHT22;54193;53.746;10.058;2023-11-19T05:56:12;8.21;95.54
67279;DHT22;54193;53.746;10.058;2023-11-19T05:58:59;8.23;95.53
67279;DHT22;54193;53.746;10.058;2023-11-19T06:01:52;8.23;95.41
67279;DHT22;54193;53.746;10.058;2023-11-19T06:04:38;8.30;95.66
67279;DHT22;54193;53.746;10.058;2023-11-19T06:07:23;8.28;95.53
67279;DHT22;54193;53.746;10.058;2023-11-19T06:10:10;8.40;95.74
67279;DHT22;54193;53.746;10.058;2023-11-19T06:12:59;8.44;95.72
67279;DHT22;54193;53.746;10.058;2023-11-19T06:15:45;8.55;95.57
67279;DHT22;54193;53.746;10.058;2023-11-19T06:18:31;8.51;95.47
67279;DHT22;54193;53.746;10.058;2023-11-19T06:21:17;8.68;95.56
67279;DHT22;54193;53.746;10.058;2023-11-19T06:24:03;8.65;95.55
67279;DHT22;54193;53.746;10.058;2023-11-19T06:26:48;8.69;95.51
67279;DHT22;54193;53.746;10.058;2023-11-19T06:29:34;8.79;95.69
67279;DHT22;54193;53.746;10.058;2023-11-19T06:32:20;8.96;95.72
67279;DHT22;54193;53.746;10.058;2023-11-19T06:35:06;9.04;95.64
67279;DHT22;54193;53.746;10.058;2023-11-19T06:37:51;9.20;95.84
67279;DHT22;54193;53.746;10.058;2023-11-19T06:40:37;9.33;95.67
67279;DHT22;54193;53.746;10.058;2023-11-19T06:43:22;9.44;95.62
67279;DHT22;54193;53.746;10.058;2023-11-19T06:46:16;9.65;95.95
67279;DHT22;54193;53.746;10.058;2023-11-19T06:49:03;9.74;95.80
67279;DHT22;54193;53.746;10.058;2023-11-19T06:51:49;9.78;95.41
67279;DHT22;54193;53.746;10.058;2023-11-19T06:54:35;10.05;95.79
67279;DHT22;54193;53.746;10.058;2023-11-19T06:57:21;10.14;95.86
67279;DHT22;54193;53.746;10.058;2023-11-19T07:00:07;10.33;95.55
67279;DHT22;54193;53.746;10.058;2023-11-19T07:02:53;10.38;95.68
67279;DHT22;54193;53.746;10.058;2023-11-19T07:05:47;10.44;95.61
67279;DHT22;54193;53.746;10.058;2023-11-19T07:08:32;10.55;95.65
67279;DHT22;54193;53.746;10.058;2023-11-19T07:11:18;10.55;95.26
67279;DHT22;54193;53.746;10.058;2023-11-19T07:14:04;10.62;95.38
67279;DHT22;54193;53.746;10.058;2023-11-19T07:16:50;10.61;95.26
67279;DHT22;54193;53.746;10.058;2023-11-19T07:19:36;10.75;95.05
67279;DHT22;54193;53.746;10.058;2023-11-19T07:22:23;10.81;94.92
67279;DHT22;54193;53.746;10.058;2023-11-19T07:25:14;10.88;95.08
67279;DHT22;54193;53.746;10.058;2023-11-19T07:28:09;10.93;94.88
67279;DHT22;54193;53.746;10.058;2023-11-19T07:30:55;10.93;94.92
67279;DHT22;54193;53.746;10.058;2023-11-19T07:33:45;11.00;94.64
67279;DHT22;54193;53.746;10.058;2023-11-19T07:36:31;11.08;94.36
67279;DHT22;54193;53.746;10.058;2023-11-19T07:39:17;11.15;94.38
67279;DHT22;54193;53.746;10.058;2023-11-19T07:42:04;11.12;94.11
67279;DHT22;54193;53.746;10.058;2023-11-19T07:44:50;11.06;94.28
67279;DHT22;54193;53.746;10.058;2023-11-19T07:47:35;11.15;94.56
67279;DHT22;54193;53.746;10.058;2023-11-19T07:50:21;11.22;94.06
67279;DHT22;54193;53.746;10.058;2023-11-19T07:53:07;11.26;93.91
67279;DHT22;54193;53.746;10.058;2023-11-19T07:55:53;11.29;93.78
67279;DHT22;54193;53.746;10.058;2023-11-19T07:58:38;11.36;93.85
67279;DHT22;54193;53.746;10.058;2023-11-19T08:01:25;11.38;93.44
67279;DHT22;54193;53.746;10.058;2023-11-19T08:04:11;11.47;93.26
67279;DHT22;54193;53.746;10.058;2023-11-19T08:06:56;11.48;93.13
67279;DHT22;54193;53.746;10.058;2023-11-19T08:09:42;11.53;93.15
67279;DHT22;54193;53.746;10.058;2023-11-19T08:12:28;11.51;92.91
67279;DHT22;54193;53.746;10.058;2023-11-19T08:15:13;11.51;92.71
67279;DHT22;54193;53.746;10.058;2023-11-19T08:17:59;11.61;92.39
67279;DHT22;54193;53.746;10.058;2023-11-19T08:20:45;11.57;92.59
67279;DHT22;54193;53.746;10.058;2023-11-19T08:23:32;11.57;92.19
67279;DHT22;54193;53.746;10.058;2023-11-19T08:26:18;11.61;92.21
67279;DHT22;54193;53.746;10.058;2023-11-19T08:29:04;11.61;92.17
67279;DHT22;54193;53.746;10.058;2023-11-19T08:31:50;11.61;92.33
67279;DHT22;54193;53.746;10.058;2023-11-19T08:34:35;11.58;92.23
67279;DHT22;54193;53.746;10.058;2023-11-19T08:37:22;11.56;91.92
67279;DHT22;54193;53.746;10.058;2023-11-19T08:40:08;11.70;91.85
67279;DHT22;54193;53.746;10.058;2023-11-19T08:42:55;11.70;91.64
67279;DHT22;54193;53.746;10.058;2023-11-19T08:45:41;11.82;91.74
67279;DHT22;54193;53.746;10.058;2023-11-19T08:48:27;11.70;91.45
67279;DHT22;54193;53.746;10.058;2023-11-19T08:51:12;11.70;91.52
67279;DHT22;54193;53.746;10.058;2023-11-19T08:53:58;11.65;91.47
67279;DHT22;54193;53.746;10.058;2023-11-19T08:56:44;11.79;90.96
67279;DHT22;54193;53.746;10.058;2023-11-19T08:59:30;11.92;90.82
67279;DHT22;54193;53.746;10.058;2023-11-19T09:02:15;11.96;90.79
67279;DHT22;54193;53.746;10.058;2023-11-19T09:05:01;11.79;90.65
67279;DHT22;54193;53.746;10.058;2023-11-19T09:07:47;11.94;90.21
67279;DHT22;54193;53.746;10.058;2023-11-19T09:10:35;11.94;90.56
67279;DHT22;54193;53.746;10.058;2023-11-19T09:13:20;11.91;90.44
67279;DHT22;54193;53.746;10.058;2023-11-19T09:16:06;11.89;90.60
67279;DHT22;54193;53.746;10.058;2023-11-19T09:18:52;11.82;90.75
67279;DHT22;54193;53.746;10.058;2023-11-19T09:21:37;11.86;90.86
67279;DHT22;54193;53.746;10.058;2023-11-19T09:24:24;11.94;90.43
67279;DHT22;54193;53.746;10.058;2023-11-19T09:27:11;11.92;90.46
67279;DHT22;54193;53.746;10.058;2023-11-19T09:29:57;11.95;90.19
67279;DHT22;54193;53.746;10.058;2023-11-19T09:32:44;11.96;90.37
67279;DHT22;54193;53.746;10.058;2023-11-19T09:35:29;11.86;90.56
67279;DHT22;54193;53.746;10.058;2023-11-19T09:38:15;11.82;90.61
67279;DHT22;54193;53.746;10.058;2023-11-19T09:41:02;11.84;90.34
67279;DHT22;54193;53.746;10.058;2023-11-19T09:43:53;11.92;90.43
67279;DHT22;54193;53.746;10.058;2023-11-19T09:46:41;11.98;90.00
67279;DHT22;54193;53.746;10.058;2023-11-19T09:49:27;11.99;90.22
67279;DHT22;54193;53.746;10.058;2023-11-19T09:52:13;11.98;90.16
67279;DHT22;54193;53.746;10.058;2023-11-19T09:54:59;12.06;89.66
67279;DHT22;54193;53.746;10.058;2023-11-19T09:57:45;12.15;89.39
67279;DHT22;54193;53.746;10.058;2023-11-19T10:00:33;12.12;89.73
67279;DHT22;54193;53.746;10.058;2023-11-19T10:03:19;12.06;89.66
67279;DHT22;54193;53.746;10.058;2023-11-19T10:06:06;12.09;89.73
67279;DHT22;54193;53.746;10.058;2023-11-19T10:08:52;12.11;89.91
67279;DHT22;54193;53.746;10.058;2023-11-19T10:11:38;12.23;89.77
67279;DHT22;54193;53.746;10.058;2023-11-19T10:14:23;12.15;89.20
67279;DHT22;54193;53.746;10.058;2023-11-19T10:17:09;12.19;88.76
67279;DHT22;54193;53.746;10.058;2023-11-19T10:19:55;12.20;88.98
67279;DHT22;54193;53.746;10.058;2023-11-19T10:22:41;12.20;88.58
67279;DHT22;54193;53.746;10.058;2023-11-19T10:25:28;12.44;88.64
67279;DHT22;54193;53.746;10.058;2023-11-19T10:28:16;12.44;88.20
67279;DHT22;54193;53.746;10.058;2023-11-19T10:31:05;12.56;87.79
67279;DHT22;54193;53.746;10.058;2023-11-19T10:33:51;12.60;86.96
67279;DHT22;54193;53.746;10.058;2023-11-19T10:36:41;12.61;87.41
67279;DHT22;54193;53.746;10.058;2023-11-19T10:39:54;12.36;87.51
67279;DHT22;54193;53.746;10.058;2023-11-19T10:42:41;12.29;87.99
67279;DHT22;54193;53.746;10.058;2023-11-19T10:45:27;12.29;88.46
67279;DHT22;54193;53.746;10.058;2023-11-19T10:48:14;12.37;88.17
67279;DHT22;54193;53.746;10.058;2023-11-19T10:51:00;12.36;88.15
67279;DHT22;54193;53.746;10.058;2023-11-19T10:53:46;12.40;87.83
67279;DHT22;54193;53.746;10.058;2023-11-19T10:56:33;12.51;87.94
67279;DHT22;54193;53.746;10.058;2023-11-19T10:59:19;12.39;88.39
67279;DHT22;54193;53.746;10.058;2023-11-19T11:02:09;12.13;89.23
67279;DHT22;54193;53.746;10.058;2023-11-19T11:04:56;11.95;90.16
67279;DHT22;54193;53.746;10.058;2023-11-19T11:07:44;11.88;90.85
67279;DHT22;54193;53.746;10.058;2023-11-19T11:10:30;11.74;91.11
67279;DHT22;54193;53.746;10.058;2023-11-19T11:13:22;11.75;90.82
67279;DHT22;54193;53.746;10.058;2023-11-19T11:16:09;11.77;91.08
67279;DHT22;54193;53.746;10.058;2023-11-19T11:18:56;11.86;91.44
67279;DHT22;54193;53.746;10.058;2023-11-19T11:21:45;11.74;91.15
67279;DHT22;54193;53.746;10.058;2023-11-19T11:28:08;11.73;91.03
67279;DHT22;54193;53.746;10.058;2023-11-19T11:31:14;11.84;91.25
67279;DHT22;54193;53.746;10.058;2023-11-19T11:39:57;11.65;91.69
67279;DHT22;54193;53.746;10.058;2023-11-19T11:42:44;11.73;91.93
67279;DHT22;54193;53.746;10.058;2023-11-19T11:45:40;11.94;91.93
67279;DHT22;54193;53.746;10.058;2023-11-19T11:48:31;12.06;91.66
67279;DHT22;54193;53.746;10.058;2023-11-19T11:51:17;12.20;91.74
67279;DHT22;54193;53.746;10.058;2023-11-19T11:54:03;12.25;91.26
67279;DHT22;54193;53.746;10.058;2023-11-19T11:57:07;12.22;90.63
67279;DHT22;54193;53.746;10.058;2023-11-19T12:00:10;12.28;90.77
67279;DHT22;54193;53.746;10.058;2023-11-19T12:03:02;12.23;90.58
67279;DHT22;54193;53.746;10.058;2023-11-19T12:05:51;12.20;91.04
67279;DHT22;54193;53.746;10.058;2023-11-19T12:08:40;12.09;90.59
67279;DHT22;54193;53.746;10.058;2023-11-19T12:11:28;12.08;90.34
67279;DHT22;54193;53.746;10.058;2023-11-19T12:14:14;12.08;90.42
67279;DHT22;54193;53.746;10.058;2023-11-19T12:17:03;12.13;90.37
67279;DHT22;54193;53.746;10.058;2023-11-19T12:20:10;12.18;90.22
67279;DHT22;54193;53.746;10.058;2023-11-19T12:22:57;12.19;90.71
67279;DHT22;54193;53.746;10.058;2023-11-19T12:25:42;12.26;90.56
67279;DHT22;54193;53.746;10.058;2023-11-19T12:28:30;12.19;90.38
67279;DHT22;54193;53.746;10.058;2023-11-19T12:31:16;12.29;90.49
67279;DHT22;54193;53.746;10.058;2023-11-19T12:34:05;12.22;90.55
67279;DHT22;54193;53.746;10.058;2023-11-19T12:36:51;12.19;90.69
67279;DHT22;54193;53.746;10.058;2023-11-19T12:39:38;12.28;90.78
67279;DHT22;54193;53.746;10.058;2023-11-19T12:42:40;12.13;90.80
67279;DHT22;54193;53.746;10.058;2023-11-19T12:45:37;12.20;90.46
67279;DHT22;54193;53.746;10.058;2023-11-19T12:48:24;12.25;90.54
67279;DHT22;54193;53.746;10.058;2023-11-19T12:51:09;12.29;90.46
67279;DHT22;54193;53.746;10.058;2023-11-19T12:53:55;12.23;90.42
67279;DHT22;54193;53.746;10.058;2023-11-19T12:56:52;12.28;90.10
67279;DHT22;54193;53.746;10.058;2023-11-19T12:59:39;12.43;89.90
67279;DHT22;54193;53.746;10.058;2023-11-19T13:02:44;12.36;89.48
67279;DHT22;54193;53.746;10.058;2023-11-19T13:05:32;12.43;89.05
67279;DHT22;54193;53.746;10.058;2023-11-19T13:08:18;12.37;89.17
67279;DHT22;54193;53.746;10.058;2023-11-19T13:11:04;12.37;88.97
67279;DHT22;54193;53.746;10.058;2023-11-19T13:13:59;12.37;88.89
67279;DHT22;54193;53.746;10.058;2023-11-19T13:16:46;12.37;88.71
67279;DHT22;54193;53.746;10.058;2023-11-19T13:19:32;12.28;88.77
67279;DHT22;54193;53.746;10.058;2023-11-19T13:22:17;12.22;88.97
67279;DHT22;54193;53.746;10.058;2023-11-19T13:25:03;12.28;89.17
67279;DHT22;54193;53.746;10.058;2023-11-19T13:27:50;12.18;89.10
67279;DHT22;54193;53.746;10.058;2023-11-19T13:30:36;12.15;89.41
67279;DHT22;54193;53.746;10.058;2023-11-19T13:33:21;12.18;89.56
67279;DHT22;54193;53.746;10.058;2023-11-19T13:36:07;12.26;89.33
67279;DHT22;54193;53.746;10.058;2023-11-19T13:38:53;12.32;89.19
67279;DHT22;54193;53.746;10.058;2023-11-19T13:41:44;12.32;89.26
67279;DHT22;54193;53.746;10.058;2023-11-19T13:44:29;12.30;88.88
67279;DHT22;54193;53.746;10.058;2023-11-19T13:47:15;12.28;89.37
67279;DHT22;54193;53.746;10.058;2023-11-19T13:50:01;12.20;89.13
67279;DHT22;54193;53.746;10.058;2023-11-19T13:52:46;12.25;89.37
67279;DHT22;54193;53.746;10.058;2023-11-19T13:55:32;12.25;89.31
67279;DHT22;54193;53.746;10.058;2023-11-19T13:58:18;12.22;89.41
67279;DHT22;54193;53.746;10.058;2023-11-19T14:01:04;12.13;89.71
67279;DHT22;54193;53.746;10.058;2023-11-19T14:03:52;12.15;89.93
67279;DHT22;54193;53.746;10.058;2023-11-19T14:06:38;12.11;90.20
67279;DHT22;54193;53.746;10.058;2023-11-19T14:09:24;12.01;90.48
67279;DHT22;54193;53.746;10.058;2023-11-19T14:12:10;11.92;90.78
67279;DHT22;54193;53.746;10.058;2023-11-19T14:14:58;11.82;90.91
67279;DHT22;54193;53.746;10.058;2023-11-19T14:17:45;11.85;91.13
67279;DHT22;54193;53.746;10.058;2023-11-19T14:20:30;11.79;91.35
67279;DHT22;54193;53.746;10.058;2023-11-19T14:23:16;11.64;91.01
67279;DHT22;54193;53.746;10.058;2023-11-19T14:26:02;11.63;91.41
67279;DHT22;54193;53.746;10.058;2023-11-19T14:28:48;11.63;91.40
67279;DHT22;54193;53.746;10.058;2023-11-19T14:31:33;11.58;91.39
67279;DHT22;54193;53.746;10.058;2023-11-19T14:34:22;11.56;91.31
67279;DHT22;54193;53.746;10.058;2023-11-19T14:37:07;11.53;91.65
67279;DHT22;54193;53.746;10.058;2023-11-19T14:39:53;11.53;91.72
67279;DHT22;54193;53.746;10.058;2023-11-19T14:42:39;11.47;91.87
67279;DHT22;54193;53.746;10.058;2023-11-19T14:45:24;11.46;91.86
67279;DHT22;54193;53.746;10.058;2023-11-19T14:48:10;11.36;92.15
67279;DHT22;54193;53.746;10.058;2023-11-19T14:50:55;11.41;92.25
67279;DHT22;54193;53.746;10.058;2023-11-19T14:53:41;11.38;92.26
67279;DHT22;54193;53.746;10.058;2023-11-19T14:56:27;11.37;92.42
67279;DHT22;54193;53.746;10.058;2023-11-19T14:59:12;11.23;92.08
67279;DHT22;54193;53.746;10.058;2023-11-19T15:01:59;11.18;91.91
67279;DHT22;54193;53.746;10.058;2023-11-19T15:04:46;11.09;91.91
67279;DHT22;54193;53.746;10.058;2023-11-19T15:07:33;11.00;91.72
67279;DHT22;54193;53.746;10.058;2023-11-19T15:10:21;10.86;91.82
67279;DHT22;54193;53.746;10.058;2023-11-19T15:13:06;10.76;91.90
67279;DHT22;54193;53.746;10.058;2023-11-19T15:15:52;10.65;92.04
67279;DHT22;54193;53.746;10.058;2023-11-19T15:18:40;10.48;91.99
67279;DHT22;54193;53.746;10.058;2023-11-19T15:21:26;10.38;92.38
67279;DHT22;54193;53.746;10.058;2023-11-19T15:24:14;10.24;92.70
67279;DHT22;54193;53.746;10.058;2023-11-19T15:27:00;10.16;92.46
67279;DHT22;54193;53.746;10.058;2023-11-19T15:29:45;10.09;92.61
67279;DHT22;54193;53.746;10.058;2023-11-19T15:32:31;10.07;92.92
67279;DHT22;54193;53.746;10.058;2023-11-19T15:35:17;10.10;92.95
67279;DHT22;54193;53.746;10.058;2023-11-19T15:38:02;10.13;92.96
67279;DHT22;54193;53.746;10.058;2023-11-19T15:40:48;10.16;92.83
67279;DHT22;54193;53.746;10.058;2023-11-19T15:43:34;10.07;92.80
67279;DHT22;54193;53.746;10.058;2023-11-19T15:46:21;10.02;92.58
67279;DHT22;54193;53.746;10.058;2023-11-19T15:49:07;9.90;92.78
67279;DHT22;54193;53.746;10.058;2023-11-19T15:51:52;9.96;92.99
67279;DHT22;54193;53.746;10.058;2023-11-19T15:54:39;9.96;92.93
67279;DHT22;54193;53.746;10.058;2023-11-19T15:57:26;9.98;92.90
67279;DHT22;54193;53.746;10.058;2023-11-19T16:00:14;9.99;93.13
67279;DHT22;54193;53.746;10.058;2023-11-19T16:03:02;10.00;92.89
67279;DHT22;54193;53.746;10.058;2023-11-19T16:05:48;9.98;92.97
67279;DHT22;54193;53.746;10.058;2023-11-19T16:08:33;9.92;93.09
67279;DHT22;54193;53.746;10.058;2023-11-19T16:11:20;9.92;93.28
67279;DHT22;54193;53.746;10.058;2023-11-19T16:14:07;9.98;93.26
67279;DHT22;54193;53.746;10.058;2023-11-19T16:16:52;10.05;93.31
67279;DHT22;54193;53.746;10.058;2023-11-19T16:19:38;10.09;93.28
67279;DHT22;54193;53.746;10.058;2023-11-19T16:22:25;10.17;93.31
67279;DHT22;54193;53.746;10.058;2023-11-19T16:25:11;10.16;93.38
67279;DHT22;54193;53.746;10.058;2023-11-19T16:27:59;10.18;93.47
67279;DHT22;54193;53.746;10.058;2023-11-19T16:30:45;10.29;93.40
67279;DHT22;54193;53.746;10.058;2023-11-19T16:33:31;10.27;93.47
67279;DHT22;54193;53.746;10.058;2023-11-19T16:36:20;10.27;93.75
67279;DHT22;54193;53.746;10.058;2023-11-19T16:39:05;10.30;93.92
67279;DHT22;54193;53.746;10.058;2023-11-19T16:41:55;10.32;93.96
67279;DHT22;54193;53.746;10.058;2023-11-19T16:44:41;10.41;93.85
67279;DHT22;54193;53.746;10.058;2023-11-19T16:47:26;10.40;93.89
67279;DHT22;54193;53.746;10.058;2023-11-19T16:50:13;10.45;93.79
67279;DHT22;54193;53.746;10.058;2023-11-19T16:53:01;10.45;93.99
67279;DHT22;54193;53.746;10.058;2023-11-19T16:55:49;10.51;93.71
67279;DHT22;54193;53.746;10.058;2023-11-19T16:58:35;10.54;93.73
67279;DHT22;54193;53.746;10.058;2023-11-19T17:01:21;10.53;93.68
67279;DHT22;54193;53.746;10.058;2023-11-19T17:04:06;10.51;93.75
67279;DHT22;54193;53.746;10.058;2023-11-19T17:06:56;10.50;93.90
67279;DHT22;54193;53.746;10.058;2023-11-19T17:09:42;10.58;93.78
67279;DHT22;54193;53.746;10.058;2023-11-19T17:12:29;10.57;94.05
67279;DHT22;54193;53.746;10.058;2023-11-19T17:15:15;10.62;93.99
67279;DHT22;54193;53.746;10.058;2023-11-19T17:18:01;10.60;93.97
67279;DHT22;54193;53.746;10.058;2023-11-19T17:20:47;10.55;93.88
67279;DHT22;54193;53.746;10.058;2023-11-19T17:23:32;10.45;93.85
67279;DHT22;54193;53.746;10.058;2023-11-19T17:26:18;10.38;93.81
67279;DHT22;54193;53.746;10.058;2023-11-19T17:29:04;10.30;94.07
67279;DHT22;54193;53.746;10.058;2023-11-19T17:31:50;10.24;94.04
67279;DHT22;54193;53.746;10.058;2023-11-19T17:34:36;10.27;94.16